sensor_id;sensor_type;location;lat;lon;timestamp;P1;durP1;ratioP1;P2;durP2;ratioP2
14613;SDS011;7393;51.446;6.800;2023-01-23T00:00:08;26.83;;;17.57;;
14613;SDS011;7393;51.446;6.800;2023-01-23T00:02:38;30.33;;;19.40;;
14613;SDS011;7393;51.446;6.800;2023-01-23T00:05:05;28.43;;;18.53;;
14613;SDS011;7393;51.446;6.800;2023-01-23T00:07:33;30.17;;;19.50;;
14613;SDS011;7393;51.446;6.800;2023-01-23T00:09:59;32.03;;;19.63;;
14613;SDS011;7393;51.446;6.800;2023-01-23T00:12:26;30.23;;;18.67;;
14613;SDS011;7393;51.446;6.800;2023-01-23T00:14:54;34.10;;;18.77;;
14613;SDS011;7393;51.446;6.800;2023-01-23T00:17:21;32.47;;;18.73;;
14613;SDS011;7393;51.446;6.800;2023-01-23T00:19:51;28.10;;;17.80;;
14613;SDS011;7393;51.446;6.800;2023-01-23T00:22:18;25.40;;;17.83;;
14613;SDS011;7393;51.446;6.800;2023-01-23T00:24:45;29.97;;;17.97;;
14613;SDS011;7393;51.446;6.800;2023-01-23T00:27:12;27.90;;;18.60;;
14613;SDS011;7393;51.446;6.800;2023-01-23T00:29:39;29.93;;;17.83;;
14613;SDS011;7393;51.446;6.800;2023-01-23T00:32:07;26.10;;;17.13;;
14613;SDS011;7393;51.446;6.800;2023-01-23T00:34:34;28.83;;;17.20;;
14613;SDS011;7393;51.446;6.800;2023-01-23T00:37:00;24.00;;;16.67;;
14613;SDS011;7393;51.446;6.800;2023-01-23T00:39:27;29.57;;;17.10;;
14613;SDS011;7393;51.446;6.800;2023-01-23T00:41:55;27.90;;;17.60;;
14613;SDS011;7393;51.446;6.800;2023-01-23T00:44:21;26.53;;;17.50;;
14613;SDS011;7393;51.446;6.800;2023-01-23T00:46:48;26.20;;;19.07;;
14613;SDS011;7393;51.446;6.800;2023-01-23T00:49:16;33.30;;;20.47;;
14613;SDS011;7393;51.446;6.800;2023-01-23T00:51:43;28.83;;;19.03;;
14613;SDS011;7393;51.446;6.800;2023-01-23T00:54:11;29.20;;;17.83;;
14613;SDS011;7393;51.446;6.800;2023-01-23T00:56:38;30.53;;;19.83;;
14613;SDS011;7393;51.446;6.800;2023-01-23T00:59:05;28.27;;;18.63;;
14613;SDS011;7393;51.446;6.800;2023-01-23T01:01:31;28.07;;;17.90;;
14613;SDS011;7393;51.446;6.800;2023-01-23T01:03:58;25.33;;;17.67;;
14613;SDS011;7393;51.446;6.800;2023-01-23T01:06:27;28.33;;;18.10;;
14613;SDS011;7393;51.446;6.800;2023-01-23T01:08:54;30.00;;;18.97;;
14613;SDS011;7393;51.446;6.800;2023-01-23T01:11:21;28.10;;;17.87;;
14613;SDS011;7393;51.446;6.800;2023-01-23T01:13:48;27.63;;;17.73;;
14613;SDS011;7393;51.446;6.800;2023-01-23T01:16:15;27.17;;;18.27;;
14613;SDS011;7393;51.446;6.800;2023-01-23T01:18:42;25.87;;;16.97;;
14613;SDS011;7393;51.446;6.800;2023-01-23T01:21:10;27.50;;;17.13;;
14613;SDS011;7393;51.446;6.800;2023-01-23T01:23:40;27.20;;;17.43;;
14613;SDS011;7393;51.446;6.800;2023-01-23T01:26:07;26.90;;;16.83;;
14613;SDS011;7393;51.446;6.800;2023-01-23T01:28:35;27.23;;;16.80;;
14613;SDS011;7393;51.446;6.800;2023-01-23T01:31:05;25.13;;;16.23;;
14613;SDS011;7393;51.446;6.800;2023-01-23T01:33:33;23.93;;;15.47;;
14613;SDS011;7393;51.446;6.800;2023-01-23T01:36:00;22.37;;;14.93;;
14613;SDS011;7393;51.446;6.800;2023-01-23T01:38:27;24.40;;;16.20;;
14613;SDS011;7393;51.446;6.800;2023-01-23T01:40:55;22.10;;;14.63;;
14613;SDS011;7393;51.446;6.800;2023-01-23T01:43:23;22.63;;;15.33;;
14613;SDS011;7393;51.446;6.800;2023-01-23T01:48:38;21.00;;;15.00;;
14613;SDS011;7393;51.446;6.800;2023-01-23T01:51:10;21.37;;;15.00;;
14613;SDS011;7393;51.446;6.800;2023-01-23T01:53:43;22.30;;;14.13;;
14613;SDS011;7393;51.446;6.800;2023-01-23T01:56:16;19.70;;;13.47;;
14613;SDS011;7393;51.446;6.800;2023-01-23T01:58:44;16.77;;;12.60;;
14613;SDS011;7393;51.446;6.800;2023-01-23T02:01:13;19.17;;;13.33;;
14613;SDS011;7393;51.446;6.800;2023-01-23T02:03:41;19.10;;;13.20;;
14613;SDS011;7393;51.446;6.800;2023-01-23T02:06:10;17.80;;;13.07;;
14613;SDS011;7393;51.446;6.800;2023-01-23T02:08:38;19.53;;;13.57;;
14613;SDS011;7393;51.446;6.800;2023-01-23T02:11:09;18.90;;;13.67;;
14613;SDS011;7393;51.446;6.800;2023-01-23T02:13:39;19.60;;;14.03;;
14613;SDS011;7393;51.446;6.800;2023-01-23T02:16:08;19.77;;;14.07;;
14613;SDS011;7393;51.446;6.800;2023-01-23T02:18:37;19.60;;;13.40;;
14613;SDS011;7393;51.446;6.800;2023-01-23T02:21:08;20.57;;;14.23;;
14613;SDS011;7393;51.446;6.800;2023-01-23T02:23:39;19.87;;;13.73;;
14613;SDS011;7393;51.446;6.800;2023-01-23T02:26:15;20.17;;;13.97;;
14613;SDS011;7393;51.446;6.800;2023-01-23T02:28:46;21.13;;;14.47;;
14613;SDS011;7393;51.446;6.800;2023-01-23T02:31:15;18.53;;;13.80;;
14613;SDS011;7393;51.446;6.800;2023-01-23T02:33:44;19.87;;;13.80;;
14613;SDS011;7393;51.446;6.800;2023-01-23T02:36:16;20.23;;;14.27;;
14613;SDS011;7393;51.446;6.800;2023-01-23T02:38:47;21.33;;;13.60;;
14613;SDS011;7393;51.446;6.800;2023-01-23T02:41:22;20.23;;;14.20;;
14613;SDS011;7393;51.446;6.800;2023-01-23T02:43:52;21.37;;;14.90;;
14613;SDS011;7393;51.446;6.800;2023-01-23T02:46:22;18.63;;;13.93;;
14613;SDS011;7393;51.446;6.800;2023-01-23T02:48:49;23.63;;;13.90;;
14613;SDS011;7393;51.446;6.800;2023-01-23T02:51:16;21.60;;;15.27;;
14613;SDS011;7393;51.446;6.800;2023-01-23T02:53:44;19.37;;;13.97;;
14613;SDS011;7393;51.446;6.800;2023-01-23T02:56:11;22.33;;;15.00;;
14613;SDS011;7393;51.446;6.800;2023-01-23T02:58:40;19.77;;;14.20;;
14613;SDS011;7393;51.446;6.800;2023-01-23T03:01:24;20.17;;;14.17;;
14613;SDS011;7393;51.446;6.800;2023-01-23T03:03:51;19.50;;;14.30;;
14613;SDS011;7393;51.446;6.800;2023-01-23T03:06:20;20.60;;;14.37;;
14613;SDS011;7393;51.446;6.800;2023-01-23T03:08:47;20.60;;;14.07;;
14613;SDS011;7393;51.446;6.800;2023-01-23T03:11:14;20.07;;;14.37;;
14613;SDS011;7393;51.446;6.800;2023-01-23T03:13:44;20.23;;;14.57;;
14613;SDS011;7393;51.446;6.800;2023-01-23T03:16:12;21.70;;;14.43;;
14613;SDS011;7393;51.446;6.800;2023-01-23T03:18:38;17.93;;;12.80;;
14613;SDS011;7393;51.446;6.800;2023-01-23T03:21:05;21.33;;;14.27;;
14613;SDS011;7393;51.446;6.800;2023-01-23T03:23:33;17.70;;;13.07;;
14613;SDS011;7393;51.446;6.800;2023-01-23T03:26:01;17.90;;;13.43;;
14613;SDS011;7393;51.446;6.800;2023-01-23T03:28:28;17.80;;;13.23;;
14613;SDS011;7393;51.446;6.800;2023-01-23T03:31:14;18.43;;;13.83;;
14613;SDS011;7393;51.446;6.800;2023-01-23T03:33:41;20.23;;;13.90;;
14613;SDS011;7393;51.446;6.800;2023-01-23T03:36:08;17.93;;;12.70;;
14613;SDS011;7393;51.446;6.800;2023-01-23T03:38:36;18.00;;;13.13;;
14613;SDS011;7393;51.446;6.800;2023-01-23T03:41:24;17.83;;;13.50;;
14613;SDS011;7393;51.446;6.800;2023-01-23T03:43:50;18.67;;;13.30;;
14613;SDS011;7393;51.446;6.800;2023-01-23T03:46:18;18.03;;;12.93;;
14613;SDS011;7393;51.446;6.800;2023-01-23T03:48:44;20.17;;;13.70;;
14613;SDS011;7393;51.446;6.800;2023-01-23T03:51:11;20.37;;;14.30;;
14613;SDS011;7393;51.446;6.800;2023-01-23T03:53:38;17.80;;;12.97;;
14613;SDS011;7393;51.446;6.800;2023-01-23T03:56:05;20.27;;;13.40;;
14613;SDS011;7393;51.446;6.800;2023-01-23T03:58:32;19.63;;;13.70;;
14613;SDS011;7393;51.446;6.800;2023-01-23T04:00:59;19.17;;;13.20;;
14613;SDS011;7393;51.446;6.800;2023-01-23T04:03:29;19.03;;;13.73;;
14613;SDS011;7393;51.446;6.800;2023-01-23T04:05:56;19.10;;;13.83;;
14613;SDS011;7393;51.446;6.800;2023-01-23T04:08:24;17.73;;;13.33;;
14613;SDS011;7393;51.446;6.800;2023-01-23T04:10:51;19.53;;;13.00;;
14613;SDS011;7393;51.446;6.800;2023-01-23T04:13:26;19.33;;;14.43;;
14613;SDS011;7393;51.446;6.800;2023-01-23T04:15:52;18.27;;;12.37;;
14613;SDS011;7393;51.446;6.800;2023-01-23T04:18:19;18.53;;;13.53;;
14613;SDS011;7393;51.446;6.800;2023-01-23T04:20:47;21.17;;;14.13;;
14613;SDS011;7393;51.446;6.800;2023-01-23T04:23:14;22.40;;;14.37;;
14613;SDS011;7393;51.446;6.800;2023-01-23T04:25:41;20.43;;;14.53;;
14613;SDS011;7393;51.446;6.800;2023-01-23T04:28:08;20.37;;;14.63;;
14613;SDS011;7393;51.446;6.800;2023-01-23T04:30:35;21.27;;;15.00;;
14613;SDS011;7393;51.446;6.800;2023-01-23T04:33:01;22.13;;;15.30;;
14613;SDS011;7393;51.446;6.800;2023-01-23T04:35:28;21.00;;;14.60;;
14613;SDS011;7393;51.446;6.800;2023-01-23T04:37:56;22.27;;;15.57;;
14613;SDS011;7393;51.446;6.800;2023-01-23T04:40:23;22.37;;;15.87;;
14613;SDS011;7393;51.446;6.800;2023-01-23T04:42:50;20.80;;;15.10;;
14613;SDS011;7393;51.446;6.800;2023-01-23T04:45:17;25.70;;;15.40;;
14613;SDS011;7393;51.446;6.800;2023-01-23T04:47:44;22.93;;;16.27;;
14613;SDS011;7393;51.446;6.800;2023-01-23T04:50:10;22.87;;;16.03;;
14613;SDS011;7393;51.446;6.800;2023-01-23T04:52:37;22.27;;;15.73;;
14613;SDS011;7393;51.446;6.800;2023-01-23T04:55:06;23.87;;;16.83;;
14613;SDS011;7393;51.446;6.800;2023-01-23T04:57:34;21.63;;;15.57;;
14613;SDS011;7393;51.446;6.800;2023-01-23T05:00:00;25.67;;;15.87;;
14613;SDS011;7393;51.446;6.800;2023-01-23T05:02:28;22.33;;;16.03;;
14613;SDS011;7393;51.446;6.800;2023-01-23T05:04:54;23.07;;;15.93;;
14613;SDS011;7393;51.446;6.800;2023-01-23T05:07:21;24.60;;;16.90;;
14613;SDS011;7393;51.446;6.800;2023-01-23T05:09:48;22.10;;;16.03;;
14613;SDS011;7393;51.446;6.800;2023-01-23T05:12:16;24.03;;;16.10;;
14613;SDS011;7393;51.446;6.800;2023-01-23T05:14:43;24.93;;;17.40;;
14613;SDS011;7393;51.446;6.800;2023-01-23T05:17:10;23.47;;;16.57;;
14613;SDS011;7393;51.446;6.800;2023-01-23T05:19:36;23.63;;;16.47;;
14613;SDS011;7393;51.446;6.800;2023-01-23T05:22:03;21.83;;;15.57;;
14613;SDS011;7393;51.446;6.800;2023-01-23T05:24:30;21.90;;;16.00;;
14613;SDS011;7393;51.446;6.800;2023-01-23T05:26:57;21.67;;;15.60;;
14613;SDS011;7393;51.446;6.800;2023-01-23T05:29:25;21.07;;;15.57;;
14613;SDS011;7393;51.446;6.800;2023-01-23T05:31:52;23.23;;;16.43;;
14613;SDS011;7393;51.446;6.800;2023-01-23T05:34:19;22.00;;;15.93;;
14613;SDS011;7393;51.446;6.800;2023-01-23T05:36:45;24.70;;;15.77;;
14613;SDS011;7393;51.446;6.800;2023-01-23T05:39:12;23.93;;;16.60;;
14613;SDS011;7393;51.446;6.800;2023-01-23T05:41:39;22.77;;;16.53;;
14613;SDS011;7393;51.446;6.800;2023-01-23T05:44:06;21.87;;;16.03;;
14613;SDS011;7393;51.446;6.800;2023-01-23T05:46:34;21.47;;;15.10;;
14613;SDS011;7393;51.446;6.800;2023-01-23T05:49:01;22.33;;;15.80;;
14613;SDS011;7393;51.446;6.800;2023-01-23T05:51:28;24.23;;;17.37;;
14613;SDS011;7393;51.446;6.800;2023-01-23T05:53:56;23.97;;;16.77;;
14613;SDS011;7393;51.446;6.800;2023-01-23T05:56:23;25.40;;;16.60;;
14613;SDS011;7393;51.446;6.800;2023-01-23T05:58:50;24.73;;;17.80;;
14613;SDS011;7393;51.446;6.800;2023-01-23T06:01:17;28.23;;;18.37;;
14613;SDS011;7393;51.446;6.800;2023-01-23T06:03:45;25.87;;;17.60;;
14613;SDS011;7393;51.446;6.800;2023-01-23T06:06:12;27.90;;;18.57;;
14613;SDS011;7393;51.446;6.800;2023-01-23T06:08:39;30.90;;;19.87;;
14613;SDS011;7393;51.446;6.800;2023-01-23T06:11:06;31.30;;;20.53;;
14613;SDS011;7393;51.446;6.800;2023-01-23T06:13:33;30.93;;;20.37;;
14613;SDS011;7393;51.446;6.800;2023-01-23T06:16:00;28.67;;;19.87;;
14613;SDS011;7393;51.446;6.800;2023-01-23T06:18:27;29.97;;;20.13;;
14613;SDS011;7393;51.446;6.800;2023-01-23T06:20:58;29.50;;;19.53;;
14613;SDS011;7393;51.446;6.800;2023-01-23T06:23:26;31.73;;;19.37;;
14613;SDS011;7393;51.446;6.800;2023-01-23T06:25:53;28.90;;;18.97;;
14613;SDS011;7393;51.446;6.800;2023-01-23T06:28:23;32.80;;;20.50;;
14613;SDS011;7393;51.446;6.800;2023-01-23T06:30:50;30.47;;;19.90;;
14613;SDS011;7393;51.446;6.800;2023-01-23T06:33:17;33.00;;;20.90;;
14613;SDS011;7393;51.446;6.800;2023-01-23T06:35:43;32.47;;;20.10;;
14613;SDS011;7393;51.446;6.800;2023-01-23T06:38:12;29.30;;;19.07;;
14613;SDS011;7393;51.446;6.800;2023-01-23T06:40:38;31.00;;;18.97;;
14613;SDS011;7393;51.446;6.800;2023-01-23T06:43:05;29.37;;;18.50;;
14613;SDS011;7393;51.446;6.800;2023-01-23T06:45:33;26.90;;;18.10;;
14613;SDS011;7393;51.446;6.800;2023-01-23T06:48:00;30.60;;;18.47;;
14613;SDS011;7393;51.446;6.800;2023-01-23T06:50:26;28.23;;;17.67;;
14613;SDS011;7393;51.446;6.800;2023-01-23T06:52:53;27.77;;;17.73;;
14613;SDS011;7393;51.446;6.800;2023-01-23T06:55:21;29.33;;;17.37;;
14613;SDS011;7393;51.446;6.800;2023-01-23T06:57:48;29.13;;;18.67;;
14613;SDS011;7393;51.446;6.800;2023-01-23T07:00:15;28.03;;;17.17;;
14613;SDS011;7393;51.446;6.800;2023-01-23T07:02:43;29.13;;;18.17;;
14613;SDS011;7393;51.446;6.800;2023-01-23T07:05:09;28.83;;;17.87;;
14613;SDS011;7393;51.446;6.800;2023-01-23T07:07:36;28.80;;;17.00;;
14613;SDS011;7393;51.446;6.800;2023-01-23T07:10:03;28.77;;;18.57;;
14613;SDS011;7393;51.446;6.800;2023-01-23T07:12:32;27.00;;;16.47;;
14613;SDS011;7393;51.446;6.800;2023-01-23T07:15:00;25.27;;;15.77;;
14613;SDS011;7393;51.446;6.800;2023-01-23T07:17:26;26.67;;;17.20;;
14613;SDS011;7393;51.446;6.800;2023-01-23T07:19:53;22.93;;;16.00;;
14613;SDS011;7393;51.446;6.800;2023-01-23T07:22:20;24.90;;;15.13;;
14613;SDS011;7393;51.446;6.800;2023-01-23T07:24:47;25.27;;;16.53;;
14613;SDS011;7393;51.446;6.800;2023-01-23T07:27:14;21.90;;;14.43;;
14613;SDS011;7393;51.446;6.800;2023-01-23T07:29:42;23.77;;;16.03;;
14613;SDS011;7393;51.446;6.800;2023-01-23T07:32:09;22.90;;;15.77;;
14613;SDS011;7393;51.446;6.800;2023-01-23T07:34:36;24.17;;;15.80;;
14613;SDS011;7393;51.446;6.800;2023-01-23T07:37:03;26.13;;;15.37;;
14613;SDS011;7393;51.446;6.800;2023-01-23T07:39:30;24.33;;;14.77;;
14613;SDS011;7393;51.446;6.800;2023-01-23T07:41:56;22.93;;;15.40;;
14613;SDS011;7393;51.446;6.800;2023-01-23T07:44:23;23.63;;;15.33;;
14613;SDS011;7393;51.446;6.800;2023-01-23T07:46:51;24.03;;;15.63;;
14613;SDS011;7393;51.446;6.800;2023-01-23T07:49:18;24.97;;;15.60;;
14613;SDS011;7393;51.446;6.800;2023-01-23T07:51:45;24.40;;;15.17;;
14613;SDS011;7393;51.446;6.800;2023-01-23T07:54:12;24.60;;;15.43;;
14613;SDS011;7393;51.446;6.800;2023-01-23T07:56:39;23.90;;;15.10;;
14613;SDS011;7393;51.446;6.800;2023-01-23T07:59:06;24.83;;;15.23;;
14613;SDS011;7393;51.446;6.800;2023-01-23T08:01:32;22.97;;;14.93;;
14613;SDS011;7393;51.446;6.800;2023-01-23T08:04:00;22.27;;;14.40;;
14613;SDS011;7393;51.446;6.800;2023-01-23T08:06:27;23.87;;;15.53;;
14613;SDS011;7393;51.446;6.800;2023-01-23T08:08:54;21.87;;;14.50;;
14613;SDS011;7393;51.446;6.800;2023-01-23T08:11:21;26.27;;;15.13;;
14613;SDS011;7393;51.446;6.800;2023-01-23T08:13:50;24.00;;;15.23;;
14613;SDS011;7393;51.446;6.800;2023-01-23T08:16:17;22.63;;;15.17;;
14613;SDS011;7393;51.446;6.800;2023-01-23T08:18:44;22.00;;;15.33;;
14613;SDS011;7393;51.446;6.800;2023-01-23T08:21:12;21.77;;;14.17;;
14613;SDS011;7393;51.446;6.800;2023-01-23T08:23:39;21.83;;;14.37;;
14613;SDS011;7393;51.446;6.800;2023-01-23T08:26:06;22.77;;;15.07;;
14613;SDS011;7393;51.446;6.800;2023-01-23T08:28:34;24.03;;;14.97;;
14613;SDS011;7393;51.446;6.800;2023-01-23T08:31:01;22.43;;;14.73;;
14613;SDS011;7393;51.446;6.800;2023-01-23T08:33:29;22.90;;;14.93;;
14613;SDS011;7393;51.446;6.800;2023-01-23T08:35:57;21.90;;;14.50;;
14613;SDS011;7393;51.446;6.800;2023-01-23T08:38:25;23.57;;;14.47;;
14613;SDS011;7393;51.446;6.800;2023-01-23T08:40:53;23.27;;;14.30;;
14613;SDS011;7393;51.446;6.800;2023-01-23T08:43:23;23.43;;;15.07;;
14613;SDS011;7393;51.446;6.800;2023-01-23T08:45:50;26.13;;;16.07;;
14613;SDS011;7393;51.446;6.800;2023-01-23T08:48:18;25.40;;;15.33;;
14613;SDS011;7393;51.446;6.800;2023-01-23T08:50:46;25.23;;;15.40;;
14613;SDS011;7393;51.446;6.800;2023-01-23T08:53:13;26.50;;;15.90;;
14613;SDS011;7393;51.446;6.800;2023-01-23T08:55:42;27.30;;;15.50;;
14613;SDS011;7393;51.446;6.800;2023-01-23T08:58:09;28.43;;;16.63;;
14613;SDS011;7393;51.446;6.800;2023-01-23T09:00:37;25.20;;;16.50;;
14613;SDS011;7393;51.446;6.800;2023-01-23T09:03:04;25.70;;;16.00;;
14613;SDS011;7393;51.446;6.800;2023-01-23T09:05:31;30.13;;;17.40;;
14613;SDS011;7393;51.446;6.800;2023-01-23T09:07:58;30.03;;;17.97;;
14613;SDS011;7393;51.446;6.800;2023-01-23T09:10:25;28.77;;;17.70;;
14613;SDS011;7393;51.446;6.800;2023-01-23T09:12:53;29.67;;;19.10;;
14613;SDS011;7393;51.446;6.800;2023-01-23T09:15:20;27.43;;;17.40;;
14613;SDS011;7393;51.446;6.800;2023-01-23T09:17:48;30.33;;;18.57;;
14613;SDS011;7393;51.446;6.800;2023-01-23T09:20:16;29.57;;;18.23;;
14613;SDS011;7393;51.446;6.800;2023-01-23T09:22:43;28.83;;;17.97;;
14613;SDS011;7393;51.446;6.800;2023-01-23T09:25:10;28.23;;;17.00;;
14613;SDS011;7393;51.446;6.800;2023-01-23T09:27:37;26.50;;;16.97;;
14613;SDS011;7393;51.446;6.800;2023-01-23T09:30:05;26.67;;;16.33;;
14613;SDS011;7393;51.446;6.800;2023-01-23T09:32:33;23.57;;;15.47;;
14613;SDS011;7393;51.446;6.800;2023-01-23T09:35:00;23.13;;;15.43;;
14613;SDS011;7393;51.446;6.800;2023-01-23T09:37:28;22.27;;;14.70;;
14613;SDS011;7393;51.446;6.800;2023-01-23T09:40:15;20.87;;;14.23;;
14613;SDS011;7393;51.446;6.800;2023-01-23T09:42:43;18.70;;;13.30;;
14613;SDS011;7393;51.446;6.800;2023-01-23T09:45:13;18.63;;;13.00;;
14613;SDS011;7393;51.446;6.800;2023-01-23T09:47:45;21.47;;;14.10;;
14613;SDS011;7393;51.446;6.800;2023-01-23T09:50:19;18.37;;;13.50;;
14613;SDS011;7393;51.446;6.800;2023-01-23T09:52:51;18.60;;;13.37;;
14613;SDS011;7393;51.446;6.800;2023-01-23T09:55:27;18.53;;;12.90;;
14613;SDS011;7393;51.446;6.800;2023-01-23T09:58:01;18.87;;;12.97;;
14613;SDS011;7393;51.446;6.800;2023-01-23T10:00:32;16.80;;;11.80;;
14613;SDS011;7393;51.446;6.800;2023-01-23T10:03:00;15.83;;;11.53;;
14613;SDS011;7393;51.446;6.800;2023-01-23T10:05:30;17.87;;;12.07;;
14613;SDS011;7393;51.446;6.800;2023-01-23T10:08:05;15.40;;;11.53;;
14613;SDS011;7393;51.446;6.800;2023-01-23T10:10:45;15.63;;;11.23;;
14613;SDS011;7393;51.446;6.800;2023-01-23T10:13:19;18.00;;;11.93;;
14613;SDS011;7393;51.446;6.800;2023-01-23T10:16:02;16.83;;;11.40;;
14613;SDS011;7393;51.446;6.800;2023-01-23T10:18:47;15.90;;;10.97;;
14613;SDS011;7393;51.446;6.800;2023-01-23T10:21:20;15.37;;;10.83;;
14613;SDS011;7393;51.446;6.800;2023-01-23T10:23:56;15.37;;;11.07;;
14613;SDS011;7393;51.446;6.800;2023-01-23T10:26:31;18.60;;;12.07;;
14613;SDS011;7393;51.446;6.800;2023-01-23T10:29:09;15.93;;;11.30;;
14613;SDS011;7393;51.446;6.800;2023-01-23T10:31:42;15.73;;;11.30;;
14613;SDS011;7393;51.446;6.800;2023-01-23T10:34:16;17.60;;;11.73;;
14613;SDS011;7393;51.446;6.800;2023-01-23T10:36:51;14.77;;;11.43;;
14613;SDS011;7393;51.446;6.800;2023-01-23T10:39:28;15.63;;;11.23;;
14613;SDS011;7393;51.446;6.800;2023-01-23T10:42:00;14.83;;;11.33;;
14613;SDS011;7393;51.446;6.800;2023-01-23T10:44:26;17.57;;;11.50;;
14613;SDS011;7393;51.446;6.800;2023-01-23T10:46:55;16.33;;;11.17;;
14613;SDS011;7393;51.446;6.800;2023-01-23T10:49:26;16.87;;;11.60;;
14613;SDS011;7393;51.446;6.800;2023-01-23T10:51:55;15.03;;;11.37;;
14613;SDS011;7393;51.446;6.800;2023-01-23T10:54:22;15.83;;;10.73;;
14613;SDS011;7393;51.446;6.800;2023-01-23T10:56:54;15.13;;;11.23;;
14613;SDS011;7393;51.446;6.800;2023-01-23T10:59:24;16.60;;;10.90;;
14613;SDS011;7393;51.446;6.800;2023-01-23T11:01:57;15.23;;;10.93;;
14613;SDS011;7393;51.446;6.800;2023-01-23T11:04:27;14.97;;;10.70;;
14613;SDS011;7393;51.446;6.800;2023-01-23T11:07:03;15.50;;;10.93;;
14613;SDS011;7393;51.446;6.800;2023-01-23T11:09:32;17.17;;;11.10;;
14613;SDS011;7393;51.446;6.800;2023-01-23T11:12:13;14.40;;;10.60;;
14613;SDS011;7393;51.446;6.800;2023-01-23T11:14:42;13.27;;;9.60;;
14613;SDS011;7393;51.446;6.800;2023-01-23T11:17:15;13.40;;;10.10;;
14613;SDS011;7393;51.446;6.800;2023-01-23T11:19:45;12.03;;;9.70;;
14613;SDS011;7393;51.446;6.800;2023-01-23T11:22:27;15.17;;;10.33;;
14613;SDS011;7393;51.446;6.800;2023-01-23T11:24:55;12.97;;;10.07;;
14613;SDS011;7393;51.446;6.800;2023-01-23T11:27:23;11.97;;;9.50;;
14613;SDS011;7393;51.446;6.800;2023-01-23T11:29:58;14.57;;;10.40;;
14613;SDS011;7393;51.446;6.800;2023-01-23T11:32:48;14.60;;;9.43;;
14613;SDS011;7393;51.446;6.800;2023-01-23T11:35:21;12.50;;;9.37;;
14613;SDS011;7393;51.446;6.800;2023-01-23T11:37:52;13.23;;;9.40;;
14613;SDS011;7393;51.446;6.800;2023-01-23T11:40:22;12.43;;;8.67;;
14613;SDS011;7393;51.446;6.800;2023-01-23T11:42:49;12.37;;;8.80;;
14613;SDS011;7393;51.446;6.800;2023-01-23T11:45:19;11.50;;;7.77;;
14613;SDS011;7393;51.446;6.800;2023-01-23T11:48:20;9.57;;;7.30;;
14613;SDS011;7393;51.446;6.800;2023-01-23T11:50:53;11.73;;;7.93;;
14613;SDS011;7393;51.446;6.800;2023-01-23T11:53:28;12.73;;;8.33;;
14613;SDS011;7393;51.446;6.800;2023-01-23T11:56:04;10.57;;;8.17;;
14613;SDS011;7393;51.446;6.800;2023-01-23T11:58:55;11.27;;;7.90;;
14613;SDS011;7393;51.446;6.800;2023-01-23T12:01:45;10.03;;;7.83;;
14613;SDS011;7393;51.446;6.800;2023-01-23T12:04:35;10.77;;;7.63;;
14613;SDS011;7393;51.446;6.800;2023-01-23T12:07:16;11.27;;;7.20;;
14613;SDS011;7393;51.446;6.800;2023-01-23T12:09:51;9.23;;;6.97;;
14613;SDS011;7393;51.446;6.800;2023-01-23T12:12:27;9.00;;;6.93;;
14613;SDS011;7393;51.446;6.800;2023-01-23T12:15:08;10.10;;;7.23;;
14613;SDS011;7393;51.446;6.800;2023-01-23T12:17:41;8.13;;;6.73;;
14613;SDS011;7393;51.446;6.800;2023-01-23T12:20:22;10.57;;;6.07;;
14613;SDS011;7393;51.446;6.800;2023-01-23T12:23:00;8.70;;;6.30;;
14613;SDS011;7393;51.446;6.800;2023-01-23T12:25:39;6.80;;;5.73;;
14613;SDS011;7393;51.446;6.800;2023-01-23T12:28:14;7.60;;;6.00;;
14613;SDS011;7393;51.446;6.800;2023-01-23T12:30:54;6.70;;;5.27;;
14613;SDS011;7393;51.446;6.800;2023-01-23T12:33:33;6.07;;;5.27;;
14613;SDS011;7393;51.446;6.800;2023-01-23T12:36:16;8.73;;;6.10;;
14613;SDS011;7393;51.446;6.800;2023-01-23T12:38:51;7.90;;;6.10;;
14613;SDS011;7393;51.446;6.800;2023-01-23T12:41:28;7.67;;;5.93;;
14613;SDS011;7393;51.446;6.800;2023-01-23T12:44:04;8.07;;;6.47;;
14613;SDS011;7393;51.446;6.800;2023-01-23T12:46:38;9.40;;;6.77;;
14613;SDS011;7393;51.446;6.800;2023-01-23T12:49:12;9.20;;;6.87;;
14613;SDS011;7393;51.446;6.800;2023-01-23T12:51:48;8.17;;;6.50;;
14613;SDS011;7393;51.446;6.800;2023-01-23T12:54:20;9.43;;;7.37;;
14613;SDS011;7393;51.446;6.800;2023-01-23T12:56:55;9.00;;;7.07;;
14613;SDS011;7393;51.446;6.800;2023-01-23T12:59:24;10.27;;;8.00;;
14613;SDS011;7393;51.446;6.800;2023-01-23T13:01:59;12.17;;;7.63;;
14613;SDS011;7393;51.446;6.800;2023-01-23T13:04:44;10.10;;;7.33;;
14613;SDS011;7393;51.446;6.800;2023-01-23T13:07:33;12.40;;;8.10;;
14613;SDS011;7393;51.446;6.800;2023-01-23T13:10:14;12.20;;;8.27;;
14613;SDS011;7393;51.446;6.800;2023-01-23T13:12:51;10.80;;;8.03;;
14613;SDS011;7393;51.446;6.800;2023-01-23T13:15:20;9.87;;;7.97;;
14613;SDS011;7393;51.446;6.800;2023-01-23T13:17:56;12.40;;;9.40;;
14613;SDS011;7393;51.446;6.800;2023-01-23T13:20:26;13.67;;;10.33;;
14613;SDS011;7393;51.446;6.800;2023-01-23T13:23:24;15.63;;;12.20;;
14613;SDS011;7393;51.446;6.800;2023-01-23T13:28:50;16.30;;;11.47;;
14613;SDS011;7393;51.446;6.800;2023-01-23T13:31:26;15.97;;;11.27;;
14613;SDS011;7393;51.446;6.800;2023-01-23T13:33:59;15.70;;;12.10;;
14613;SDS011;7393;51.446;6.800;2023-01-23T13:36:31;15.20;;;11.60;;
14613;SDS011;7393;51.446;6.800;2023-01-23T13:41:48;14.83;;;11.33;;
14613;SDS011;7393;51.446;6.800;2023-01-23T13:44:17;16.33;;;11.50;;
14613;SDS011;7393;51.446;6.800;2023-01-23T13:47:03;14.90;;;11.33;;
14613;SDS011;7393;51.446;6.800;2023-01-23T13:49:54;14.43;;;10.97;;
14613;SDS011;7393;51.446;6.800;2023-01-23T13:52:28;12.63;;;10.00;;
14613;SDS011;7393;51.446;6.800;2023-01-23T13:55:17;12.50;;;10.10;;
14613;SDS011;7393;51.446;6.800;2023-01-23T13:58:03;13.13;;;9.90;;
14613;SDS011;7393;51.446;6.800;2023-01-23T14:00:31;15.37;;;10.63;;
14613;SDS011;7393;51.446;6.800;2023-01-23T14:03:08;13.57;;;10.23;;
14613;SDS011;7393;51.446;6.800;2023-01-23T14:06:03;14.67;;;10.97;;
14613;SDS011;7393;51.446;6.800;2023-01-23T14:08:31;15.47;;;11.97;;
14613;SDS011;7393;51.446;6.800;2023-01-23T14:11:00;14.67;;;11.47;;
14613;SDS011;7393;51.446;6.800;2023-01-23T14:13:27;14.67;;;11.60;;
14613;SDS011;7393;51.446;6.800;2023-01-23T14:15:54;14.13;;;11.43;;
14613;SDS011;7393;51.446;6.800;2023-01-23T14:18:37;15.97;;;12.10;;
14613;SDS011;7393;51.446;6.800;2023-01-23T14:21:14;14.47;;;11.77;;
14613;SDS011;7393;51.446;6.800;2023-01-23T14:23:47;17.17;;;12.63;;
14613;SDS011;7393;51.446;6.800;2023-01-23T14:26:17;16.67;;;12.27;;
14613;SDS011;7393;51.446;6.800;2023-01-23T14:28:52;17.27;;;12.97;;
14613;SDS011;7393;51.446;6.800;2023-01-23T14:31:22;19.47;;;13.63;;
14613;SDS011;7393;51.446;6.800;2023-01-23T14:33:54;19.17;;;13.03;;
14613;SDS011;7393;51.446;6.800;2023-01-23T14:36:24;18.53;;;14.13;;
14613;SDS011;7393;51.446;6.800;2023-01-23T14:38:51;17.23;;;13.50;;
14613;SDS011;7393;51.446;6.800;2023-01-23T14:41:21;16.93;;;13.60;;
14613;SDS011;7393;51.446;6.800;2023-01-23T14:43:52;18.03;;;13.57;;
14613;SDS011;7393;51.446;6.800;2023-01-23T14:46:21;16.87;;;12.80;;
14613;SDS011;7393;51.446;6.800;2023-01-23T14:48:58;17.10;;;12.73;;
14613;SDS011;7393;51.446;6.800;2023-01-23T14:51:25;18.67;;;12.60;;
14613;SDS011;7393;51.446;6.800;2023-01-23T14:53:53;16.03;;;12.33;;
14613;SDS011;7393;51.446;6.800;2023-01-23T14:56:24;17.30;;;13.07;;
14613;SDS011;7393;51.446;6.800;2023-01-23T14:58:54;18.70;;;14.57;;
14613;SDS011;7393;51.446;6.800;2023-01-23T15:01:23;15.63;;;12.40;;